sensor_id;sensor_type;location;lat;lon;timestamp;P1;durP1;ratioP1;P2;durP2;ratioP2
76846;SDS011;65813;49.546;8.644;2023-12-14T04:46:34;11.05;;;7.18;;
76846;SDS011;65813;49.546;8.644;2023-12-14T04:50:34;11.27;;;6.40;;
76846;SDS011;65813;49.546;8.644;2023-12-14T04:54:34;12.13;;;6.57;;
76846;SDS011;65813;49.546;8.644;2023-12-14T04:58:41;11.90;;;6.65;;
76846;SDS011;65813;49.546;8.644;2023-12-14T05:02:42;12.02;;;6.40;;
76846;SDS011;65813;49.546;8.644;2023-12-14T05:06:48;11.35;;;6.38;;
76846;SDS011;65813;49.546;8.644;2023-12-14T05:10:48;15.53;;;6.93;;
76846;SDS011;65813;49.546;8.644;2023-12-14T05:14:49;13.60;;;7.93;;
76846;SDS011;65813;49.546;8.644;2023-12-14T05:18:49;15.27;;;8.13;;
76846;SDS011;65813;49.546;8.644;2023-12-14T05:22:50;13.50;;;7.37;;
76846;SDS011;65813;49.546;8.644;2023-12-14T05:26:50;13.00;;;6.87;;
76846;SDS011;65813;49.546;8.644;2023-12-14T05:30:50;11.55;;;5.95;;
76846;SDS011;65813;49.546;8.644;2023-12-14T05:34:51;12.93;;;7.13;;
76846;SDS011;65813;49.546;8.644;2023-12-14T05:38:51;14.60;;;7.20;;
76846;SDS011;65813;49.546;8.644;2023-12-14T05:42:51;14.23;;;8.23;;
76846;SDS011;65813;49.546;8.644;2023-12-14T05:46:52;14.53;;;7.50;;
76846;SDS011;65813;49.546;8.644;2023-12-14T05:50:52;14.33;;;7.77;;
76846;SDS011;65813;49.546;8.644;2023-12-14T05:54:52;16.20;;;8.48;;
76846;SDS011;65813;49.546;8.644;2023-12-14T05:58:53;16.33;;;8.67;;
76846;SDS011;65813;49.546;8.644;2023-12-14T06:02:53;13.30;;;6.93;;
76846;SDS011;65813;49.546;8.644;2023-12-14T06:06:54;17.43;;;7.13;;
76846;SDS011;65813;49.546;8.644;2023-12-14T06:10:54;13.63;;;8.20;;
76846;SDS011;65813;49.546;8.644;2023-12-14T06:14:54;13.03;;;7.57;;
76846;SDS011;65813;49.546;8.644;2023-12-14T06:18:54;14.67;;;8.23;;
76846;SDS011;65813;49.546;8.644;2023-12-14T06:22:55;11.60;;;7.00;;
76846;SDS011;65813;49.546;8.644;2023-12-14T06:26:55;17.47;;;8.13;;
76846;SDS011;65813;49.546;8.644;2023-12-14T06:30:55;14.23;;;7.73;;
76846;SDS011;65813;49.546;8.644;2023-12-14T06:34:56;12.55;;;7.18;;
76846;SDS011;65813;49.546;8.644;2023-12-14T06:39:00;15.30;;;6.70;;
76846;SDS011;65813;49.546;8.644;2023-12-14T06:43:03;14.80;;;7.97;;
76846;SDS011;65813;49.546;8.644;2023-12-14T06:47:08;13.80;;;7.82;;
76846;SDS011;65813;49.546;8.644;2023-12-14T06:51:08;16.90;;;8.25;;
76846;SDS011;65813;49.546;8.644;2023-12-14T06:55:11;16.48;;;8.38;;
76846;SDS011;65813;49.546;8.644;2023-12-14T06:59:14;13.68;;;7.60;;
76846;SDS011;65813;49.546;8.644;2023-12-14T07:03:15;18.13;;;8.43;;
76846;SDS011;65813;49.546;8.644;2023-12-14T07:07:15;15.90;;;7.80;;
76846;SDS011;65813;49.546;8.644;2023-12-14T07:11:16;17.03;;;8.57;;
76846;SDS011;65813;49.546;8.644;2023-12-14T07:15:17;14.70;;;8.73;;
76846;SDS011;65813;49.546;8.644;2023-12-14T07:19:19;17.42;;;8.20;;
76846;SDS011;65813;49.546;8.644;2023-12-14T07:23:19;17.43;;;8.93;;
76846;SDS011;65813;49.546;8.644;2023-12-14T07:27:19;15.90;;;9.03;;
76846;SDS011;65813;49.546;8.644;2023-12-14T07:31:19;17.60;;;7.97;;
76846;SDS011;65813;49.546;8.644;2023-12-14T07:35:20;15.70;;;8.75;;
76846;SDS011;65813;49.546;8.644;2023-12-14T07:39:21;18.30;;;9.73;;
76846;SDS011;65813;49.546;8.644;2023-12-14T07:43:21;19.98;;;11.55;;
76846;SDS011;65813;49.546;8.644;2023-12-14T07:47:22;23.48;;;10.73;;
76846;SDS011;65813;49.546;8.644;2023-12-14T07:51:23;29.10;;;13.82;;
76846;SDS011;65813;49.546;8.644;2023-12-14T07:55:23;26.02;;;13.15;;
76846;SDS011;65813;49.546;8.644;2023-12-14T07:59:24;20.00;;;10.07;;
76846;SDS011;65813;49.546;8.644;2023-12-14T08:03:24;17.70;;;10.23;;
76846;SDS011;65813;49.546;8.644;2023-12-14T08:07:25;20.35;;;10.10;;
76846;SDS011;65813;49.546;8.644;2023-12-14T08:11:29;21.25;;;10.95;;
76846;SDS011;65813;49.546;8.644;2023-12-14T08:15:29;19.10;;;10.37;;
76846;SDS011;65813;49.546;8.644;2023-12-14T08:19:30;21.98;;;10.32;;
76846;SDS011;65813;49.546;8.644;2023-12-14T08:23:30;21.30;;;10.35;;
76846;SDS011;65813;49.546;8.644;2023-12-14T08:27:30;18.73;;;9.87;;
76846;SDS011;65813;49.546;8.644;2023-12-14T08:31:31;21.58;;;10.63;;
76846;SDS011;65813;49.546;8.644;2023-12-14T08:35:32;21.65;;;10.60;;
76846;SDS011;65813;49.546;8.644;2023-12-14T08:39:32;22.67;;;10.10;;
76846;SDS011;65813;49.546;8.644;2023-12-14T08:43:32;19.03;;;10.57;;
76846;SDS011;65813;49.546;8.644;2023-12-14T08:47:32;21.33;;;12.17;;
76846;SDS011;65813;49.546;8.644;2023-12-14T08:51:34;22.60;;;12.13;;
76846;SDS011;65813;49.546;8.644;2023-12-14T08:55:34;28.35;;;13.70;;
76846;SDS011;65813;49.546;8.644;2023-12-14T08:59:34;32.50;;;15.40;;
76846;SDS011;65813;49.546;8.644;2023-12-14T09:03:35;27.03;;;13.87;;
76846;SDS011;65813;49.546;8.644;2023-12-14T09:07:35;21.73;;;10.47;;
76846;SDS011;65813;49.546;8.644;2023-12-14T09:11:35;17.83;;;10.27;;
76846;SDS011;65813;49.546;8.644;2023-12-14T09:15:36;23.42;;;12.88;;
76846;SDS011;65813;49.546;8.644;2023-12-14T09:19:36;18.73;;;10.63;;
76846;SDS011;65813;49.546;8.644;2023-12-14T09:23:36;20.03;;;9.80;;
76846;SDS011;65813;49.546;8.644;2023-12-14T09:27:37;21.57;;;9.87;;
76846;SDS011;65813;49.546;8.644;2023-12-14T09:31:40;16.93;;;9.40;;
76846;SDS011;65813;49.546;8.644;2023-12-14T09:35:42;18.25;;;10.35;;
76846;SDS011;65813;49.546;8.644;2023-12-14T09:39:43;18.50;;;10.02;;
76846;SDS011;65813;49.546;8.644;2023-12-14T09:43:45;19.50;;;9.52;;
76846;SDS011;65813;49.546;8.644;2023-12-14T09:47:46;20.08;;;10.32;;
76846;SDS011;65813;49.546;8.644;2023-12-14T09:51:46;21.10;;;10.20;;
76846;SDS011;65813;49.546;8.644;2023-12-14T09:55:47;19.57;;;9.60;;
76846;SDS011;65813;49.546;8.644;2023-12-14T09:59:52;22.20;;;10.60;;
76846;SDS011;65813;49.546;8.644;2023-12-14T10:04:12;21.20;;;9.90;;
76846;SDS011;65813;49.546;8.644;2023-12-14T10:08:15;23.73;;;11.00;;
76846;SDS011;65813;49.546;8.644;2023-12-14T10:12:16;22.95;;;10.57;;
76846;SDS011;65813;49.546;8.644;2023-12-14T10:16:26;20.35;;;10.93;;
76846;SDS011;65813;49.546;8.644;2023-12-14T10:20:33;17.98;;;9.40;;
76846;SDS011;65813;49.546;8.644;2023-12-14T10:24:33;20.20;;;10.03;;
76846;SDS011;65813;49.546;8.644;2023-12-14T10:28:34;21.30;;;9.38;;
76846;SDS011;65813;49.546;8.644;2023-12-14T10:32:35;16.43;;;9.00;;
76846;SDS011;65813;49.546;8.644;2023-12-14T10:36:35;15.83;;;8.37;;
76846;SDS011;65813;49.546;8.644;2023-12-14T10:40:36;15.20;;;7.25;;
76846;SDS011;65813;49.546;8.644;2023-12-14T10:44:41;16.20;;;8.57;;
76846;SDS011;65813;49.546;8.644;2023-12-14T10:48:42;21.67;;;10.27;;
76846;SDS011;65813;49.546;8.644;2023-12-14T10:52:45;18.48;;;8.70;;
76846;SDS011;65813;49.546;8.644;2023-12-14T10:56:46;15.13;;;7.25;;
76846;SDS011;65813;49.546;8.644;2023-12-14T11:01:02;13.90;;;6.75;;
76846;SDS011;65813;49.546;8.644;2023-12-14T11:05:02;14.15;;;6.57;;
76846;SDS011;65813;49.546;8.644;2023-12-14T11:09:09;13.35;;;7.13;;
76846;SDS011;65813;49.546;8.644;2023-12-14T11:13:11;19.52;;;9.35;;
76846;SDS011;65813;49.546;8.644;2023-12-14T11:17:13;13.35;;;7.07;;
76846;SDS011;65813;49.546;8.644;2023-12-14T11:21:18;13.35;;;6.88;;
76846;SDS011;65813;49.546;8.644;2023-12-14T11:25:23;14.00;;;6.28;;
76846;SDS011;65813;49.546;8.644;2023-12-14T11:29:24;16.02;;;6.97;;
76846;SDS011;65813;49.546;8.644;2023-12-14T11:33:25;16.35;;;8.55;;
76846;SDS011;65813;49.546;8.644;2023-12-14T11:37:28;17.45;;;7.93;;
76846;SDS011;65813;49.546;8.644;2023-12-14T11:41:28;19.00;;;10.07;;
76846;SDS011;65813;49.546;8.644;2023-12-14T11:45:31;11.93;;;6.75;;
76846;SDS011;65813;49.546;8.644;2023-12-14T11:49:31;12.02;;;6.85;;
76846;SDS011;65813;49.546;8.644;2023-12-14T11:53:32;15.07;;;6.60;;
76846;SDS011;65813;49.546;8.644;2023-12-14T11:57:34;12.65;;;6.38;;
76846;SDS011;65813;49.546;8.644;2023-12-14T12:01:34;11.38;;;5.03;;
76846;SDS011;65813;49.546;8.644;2023-12-14T12:05:36;13.25;;;6.90;;
76846;SDS011;65813;49.546;8.644;2023-12-14T12:09:39;12.55;;;6.00;;
76846;SDS011;65813;49.546;8.644;2023-12-14T12:13:42;11.55;;;6.00;;
76846;SDS011;65813;49.546;8.644;2023-12-14T12:17:42;10.30;;;5.33;;
76846;SDS011;65813;49.546;8.644;2023-12-14T12:21:44;11.23;;;5.70;;
76846;SDS011;65813;49.546;8.644;2023-12-14T12:25:44;11.23;;;5.57;;
76846;SDS011;65813;49.546;8.644;2023-12-14T12:29:44;12.60;;;5.97;;
76846;SDS011;65813;49.546;8.644;2023-12-14T12:33:45;11.33;;;4.97;;
76846;SDS011;65813;49.546;8.644;2023-12-14T12:37:45;10.67;;;4.77;;
76846;SDS011;65813;49.546;8.644;2023-12-14T12:41:45;10.30;;;5.32;;
76846;SDS011;65813;49.546;8.644;2023-12-14T12:45:46;9.83;;;4.97;;
76846;SDS011;65813;49.546;8.644;2023-12-14T12:49:46;11.13;;;5.87;;
76846;SDS011;65813;49.546;8.644;2023-12-14T12:53:46;8.03;;;3.83;;
76846;SDS011;65813;49.546;8.644;2023-12-14T12:57:47;12.50;;;5.87;;
76846;SDS011;65813;49.546;8.644;2023-12-14T13:01:48;11.02;;;4.65;;
76846;SDS011;65813;49.546;8.644;2023-12-14T13:05:49;10.03;;;4.50;;
76846;SDS011;65813;49.546;8.644;2023-12-14T13:09:49;9.03;;;4.33;;
76846;SDS011;65813;49.546;8.644;2023-12-14T13:13:49;10.00;;;4.80;;
76846;SDS011;65813;49.546;8.644;2023-12-14T13:17:50;11.20;;;5.53;;
76846;SDS011;65813;49.546;8.644;2023-12-14T13:21:50;13.23;;;5.93;;
76846;SDS011;65813;49.546;8.644;2023-12-14T13:25:50;9.57;;;5.20;;
76846;SDS011;65813;49.546;8.644;2023-12-14T13:29:52;11.30;;;5.32;;
76846;SDS011;65813;49.546;8.644;2023-12-14T13:33:53;9.45;;;4.70;;
76846;SDS011;65813;49.546;8.644;2023-12-14T13:37:53;11.30;;;5.03;;
76846;SDS011;65813;49.546;8.644;2023-12-14T13:41:54;8.73;;;4.30;;
76846;SDS011;65813;49.546;8.644;2023-12-14T13:45:55;10.02;;;4.85;;
76846;SDS011;65813;49.546;8.644;2023-12-14T13:49:58;10.65;;;4.68;;
76846;SDS011;65813;49.546;8.644;2023-12-14T13:53:58;8.63;;;3.97;;
76846;SDS011;65813;49.546;8.644;2023-12-14T13:57:58;10.97;;;4.93;;
76846;SDS011;65813;49.546;8.644;2023-12-14T14:02:00;11.93;;;5.57;;
76846;SDS011;65813;49.546;8.644;2023-12-14T14:06:01;13.13;;;5.80;;
76846;SDS011;65813;49.546;8.644;2023-12-14T14:10:02;9.93;;;4.32;;
76846;SDS011;65813;49.546;8.644;2023-12-14T14:14:03;12.52;;;5.15;;
76846;SDS011;65813;49.546;8.644;2023-12-14T14:18:03;11.95;;;5.40;;
76846;SDS011;65813;49.546;8.644;2023-12-14T14:22:04;9.60;;;4.60;;
76846;SDS011;65813;49.546;8.644;2023-12-14T14:26:04;10.75;;;5.25;;
76846;SDS011;65813;49.546;8.644;2023-12-14T14:30:05;11.77;;;5.10;;
76846;SDS011;65813;49.546;8.644;2023-12-14T14:34:06;12.13;;;4.57;;
76846;SDS011;65813;49.546;8.644;2023-12-14T14:38:06;9.43;;;4.20;;
76846;SDS011;65813;49.546;8.644;2023-12-14T14:42:07;8.93;;;4.25;;
76846;SDS011;65813;49.546;8.644;2023-12-14T14:46:07;11.57;;;4.27;;
76846;SDS011;65813;49.546;8.644;2023-12-14T14:50:08;7.83;;;3.63;;
76846;SDS011;65813;49.546;8.644;2023-12-14T14:54:08;8.05;;;3.25;;
76846;SDS011;65813;49.546;8.644;2023-12-14T14:58:09;7.35;;;3.65;;
76846;SDS011;65813;49.546;8.644;2023-12-14T15:02:09;8.80;;;3.90;;
76846;SDS011;65813;49.546;8.644;2023-12-14T15:06:10;8.50;;;3.70;;
76846;SDS011;65813;49.546;8.644;2023-12-14T15:10:11;9.10;;;3.63;;
76846;SDS011;65813;49.546;8.644;2023-12-14T15:14:11;7.63;;;3.83;;
76846;SDS011;65813;49.546;8.644;2023-12-14T15:18:12;7.83;;;3.43;;
76846;SDS011;65813;49.546;8.644;2023-12-14T15:22:12;8.73;;;4.20;;
76846;SDS011;65813;49.546;8.644;2023-12-14T15:26:14;29.35;;;11.77;;
76846;SDS011;65813;49.546;8.644;2023-12-14T15:30:15;13.65;;;4.97;;
76846;SDS011;65813;49.546;8.644;2023-12-14T15:34:16;8.60;;;4.00;;
76846;SDS011;65813;49.546;8.644;2023-12-14T15:38:18;6.70;;;2.90;;
76846;SDS011;65813;49.546;8.644;2023-12-14T15:42:18;6.30;;;3.10;;
76846;SDS011;65813;49.546;8.644;2023-12-14T15:46:19;6.65;;;3.60;;
76846;SDS011;65813;49.546;8.644;2023-12-14T15:50:21;8.07;;;3.78;;
76846;SDS011;65813;49.546;8.644;2023-12-14T15:54:22;6.63;;;2.70;;
76846;SDS011;65813;49.546;8.644;2023-12-14T15:58:23;7.10;;;3.35;;
76846;SDS011;65813;49.546;8.644;2023-12-14T16:02:23;8.67;;;3.40;;
76846;SDS011;65813;49.546;8.644;2023-12-14T16:06:23;6.67;;;3.30;;
76846;SDS011;65813;49.546;8.644;2023-12-14T16:10:24;6.60;;;3.27;;
76846;SDS011;65813;49.546;8.644;2023-12-14T16:14:24;7.50;;;3.23;;
76846;SDS011;65813;49.546;8.644;2023-12-14T16:18:24;7.53;;;3.30;;
76846;SDS011;65813;49.546;8.644;2023-12-14T16:22:25;6.10;;;3.10;;
76846;SDS011;65813;49.546;8.644;2023-12-14T16:26:25;7.30;;;3.40;;
76846;SDS011;65813;49.546;8.644;2023-12-14T16:30:26;8.23;;;3.45;;
76846;SDS011;65813;49.546;8.644;2023-12-14T16:34:26;7.17;;;3.50;;
76846;SDS011;65813;49.546;8.644;2023-12-14T16:38:26;7.50;;;3.37;;
76846;SDS011;65813;49.546;8.644;2023-12-14T16:42:27;7.47;;;3.08;;
76846;SDS011;65813;49.546;8.644;2023-12-14T16:46:27;5.83;;;2.70;;
76846;SDS011;65813;49.546;8.644;2023-12-14T16:50:27;6.83;;;2.80;;
76846;SDS011;65813;49.546;8.644;2023-12-14T16:54:28;7.15;;;2.95;;
76846;SDS011;65813;49.546;8.644;2023-12-14T16:58:28;5.63;;;3.07;;
76846;SDS011;65813;49.546;8.644;2023-12-14T17:02:29;7.28;;;3.25;;
76846;SDS011;65813;49.546;8.644;2023-12-14T17:06:31;6.00;;;3.20;;
76846;SDS011;65813;49.546;8.644;2023-12-14T17:10:32;5.33;;;2.03;;
76846;SDS011;65813;49.546;8.644;2023-12-14T17:14:32;4.67;;;2.30;;
76846;SDS011;65813;49.546;8.644;2023-12-14T17:18:34;4.13;;;2.15;;
76846;SDS011;65813;49.546;8.644;2023-12-14T17:22:35;4.57;;;2.20;;
76846;SDS011;65813;49.546;8.644;2023-12-14T17:26:40;4.80;;;2.28;;
76846;SDS011;65813;49.546;8.644;2023-12-14T17:30:40;3.73;;;1.80;;
76846;SDS011;65813;49.546;8.644;2023-12-14T17:34:40;5.07;;;2.80;;
76846;SDS011;65813;49.546;8.644;2023-12-14T17:38:41;4.95;;;2.10;;
76846;SDS011;65813;49.546;8.644;2023-12-14T17:42:41;5.25;;;2.20;;
76846;SDS011;65813;49.546;8.644;2023-12-14T17:46:42;5.78;;;2.50;;
76846;SDS011;65813;49.546;8.644;2023-12-14T17:50:42;5.03;;;2.17;;
76846;SDS011;65813;49.546;8.644;2023-12-14T17:54:43;4.87;;;2.40;;
76846;SDS011;65813;49.546;8.644;2023-12-14T17:58:43;6.53;;;2.23;;
76846;SDS011;65813;49.546;8.644;2023-12-14T18:02:45;4.40;;;1.95;;
76846;SDS011;65813;49.546;8.644;2023-12-14T18:06:45;4.57;;;2.03;;
76846;SDS011;65813;49.546;8.644;2023-12-14T18:10:47;4.13;;;2.08;;
76846;SDS011;65813;49.546;8.644;2023-12-14T18:14:47;5.30;;;2.67;;
76846;SDS011;65813;49.546;8.644;2023-12-14T18:18:48;6.55;;;2.65;;
76846;SDS011;65813;49.546;8.644;2023-12-14T18:22:48;4.90;;;2.17;;
76846;SDS011;65813;49.546;8.644;2023-12-14T18:26:49;6.97;;;3.60;;
76846;SDS011;65813;49.546;8.644;2023-12-14T18:30:50;5.28;;;2.78;;
76846;SDS011;65813;49.546;8.644;2023-12-14T18:34:51;5.53;;;2.27;;
76846;SDS011;65813;49.546;8.644;2023-12-14T18:38:51;5.63;;;2.53;;
76846;SDS011;65813;49.546;8.644;2023-12-14T18:42:52;4.97;;;2.10;;
76846;SDS011;65813;49.546;8.644;2023-12-14T18:46:52;5.22;;;2.47;;
76846;SDS011;65813;49.546;8.644;2023-12-14T18:50:53;6.55;;;2.55;;
76846;SDS011;65813;49.546;8.644;2023-12-14T18:54:53;5.72;;;2.70;;
76846;SDS011;65813;49.546;8.644;2023-12-14T18:58:53;5.27;;;3.00;;
76846;SDS011;65813;49.546;8.644;2023-12-14T19:02:54;6.45;;;3.13;;
76846;SDS011;65813;49.546;8.644;2023-12-14T19:06:54;5.95;;;2.60;;
76846;SDS011;65813;49.546;8.644;2023-12-14T19:10:55;5.72;;;2.75;;
76846;SDS011;65813;49.546;8.644;2023-12-14T19:14:55;4.03;;;1.90;;
76846;SDS011;65813;49.546;8.644;2023-12-14T19:18:56;5.40;;;2.13;;
76846;SDS011;65813;49.546;8.644;2023-12-14T19:22:56;5.15;;;2.35;;
76846;SDS011;65813;49.546;8.644;2023-12-14T19:26:58;4.72;;;2.53;;
76846;SDS011;65813;49.546;8.644;2023-12-14T19:30:59;5.10;;;2.30;;
76846;SDS011;65813;49.546;8.644;2023-12-14T19:35:03;4.55;;;2.08;;
76846;SDS011;65813;49.546;8.644;2023-12-14T19:39:04;5.88;;;2.03;;
76846;SDS011;65813;49.546;8.644;2023-12-14T19:43:05;5.10;;;2.50;;
76846;SDS011;65813;49.546;8.644;2023-12-14T19:47:06;5.38;;;2.35;;
76846;SDS011;65813;49.546;8.644;2023-12-14T19:51:06;6.07;;;3.10;;
76846;SDS011;65813;49.546;8.644;2023-12-14T19:55:07;7.55;;;3.63;;
76846;SDS011;65813;49.546;8.644;2023-12-14T19:59:10;7.93;;;3.85;;
76846;SDS011;65813;49.546;8.644;2023-12-14T20:03:11;7.90;;;3.90;;
76846;SDS011;65813;49.546;8.644;2023-12-14T20:07:12;6.40;;;3.33;;
76846;SDS011;65813;49.546;8.644;2023-12-14T20:11:16;7.00;;;3.00;;
76846;SDS011;65813;49.546;8.644;2023-12-14T20:15:17;7.05;;;2.83;;
76846;SDS011;65813;49.546;8.644;2023-12-14T20:19:18;5.78;;;3.08;;
76846;SDS011;65813;49.546;8.644;2023-12-14T20:23:18;4.37;;;2.27;;
76846;SDS011;65813;49.546;8.644;2023-12-14T20:27:19;6.00;;;2.80;;
76846;SDS011;65813;49.546;8.644;2023-12-14T20:31:19;5.22;;;2.33;;
76846;SDS011;65813;49.546;8.644;2023-12-14T20:35:20;5.40;;;2.38;;
76846;SDS011;65813;49.546;8.644;2023-12-14T20:39:20;7.73;;;2.60;;
76846;SDS011;65813;49.546;8.644;2023-12-14T20:43:21;6.43;;;2.88;;
76846;SDS011;65813;49.546;8.644;2023-12-14T20:47:21;5.63;;;2.58;;
76846;SDS011;65813;49.546;8.644;2023-12-14T20:51:22;6.05;;;2.88;;
76846;SDS011;65813;49.546;8.644;2023-12-14T20:55:22;5.50;;;2.72;;
76846;SDS011;65813;49.546;8.644;2023-12-14T20:59:23;6.70;;;2.90;;
76846;SDS011;65813;49.546;8.644;2023-12-14T21:03:23;9.32;;;3.50;;
76846;SDS011;65813;49.546;8.644;2023-12-14T21:07:24;6.57;;;2.83;;
76846;SDS011;65813;49.546;8.644;2023-12-14T21:11:24;6.07;;;3.00;;
76846;SDS011;65813;49.546;8.644;2023-12-14T21:15:24;6.90;;;3.00;;
76846;SDS011;65813;49.546;8.644;2023-12-14T21:19:25;7.33;;;3.60;;
76846;SDS011;65813;49.546;8.644;2023-12-14T21:23:25;7.73;;;3.40;;
76846;SDS011;65813;49.546;8.644;2023-12-14T21:27:26;6.37;;;3.17;;
76846;SDS011;65813;49.546;8.644;2023-12-14T21:31:46;8.05;;;3.13;;
76846;SDS011;65813;49.546;8.644;2023-12-14T21:35:46;7.93;;;3.50;;
76846;SDS011;65813;49.546;8.644;2023-12-14T21:39:47;7.57;;;3.47;;
76846;SDS011;65813;49.546;8.644;2023-12-14T21:43:47;6.80;;;3.10;;
76846;SDS011;65813;49.546;8.644;2023-12-14T21:47:47;7.40;;;3.00;;
76846;SDS011;65813;49.546;8.644;2023-12-14T21:51:48;7.43;;;3.20;;
76846;SDS011;65813;49.546;8.644;2023-12-14T21:55:48;7.33;;;3.23;;
76846;SDS011;65813;49.546;8.644;2023-12-14T21:59:49;8.05;;;3.13;;
76846;SDS011;65813;49.546;8.644;2023-12-14T22:03:49;6.27;;;2.87;;
76846;SDS011;65813;49.546;8.644;2023-12-14T22:07:49;8.23;;;3.90;;
76846;SDS011;65813;49.546;8.644;2023-12-14T22:11:50;9.00;;;4.63;;
